sensor_id;sensor_type;location;lat;lon;timestamp;pressure;altitude;pressure_sealevel;temperature;humidity
70229;BME280;57617;51.988;5.854;2023-01-25T00:00:04;103327.88;;;4.56;65.29
70229;BME280;57617;51.988;5.854;2023-01-25T00:02:30;103327.88;;;4.56;65.24
70229;BME280;57617;51.988;5.854;2023-01-25T00:04:55;103323.38;;;4.57;64.96
70229;BME280;57617;51.988;5.854;2023-01-25T00:07:20;103320.53;;;4.58;64.83
70229;BME280;57617;51.988;5.854;2023-01-25T00:09:46;103316.97;;;4.58;64.79
70229;BME280;57617;51.988;5.854;2023-01-25T00:12:11;103315.28;;;4.57;65.18
70229;BME280;57617;51.988;5.854;2023-01-25T00:14:36;103314.28;;;4.58;65.15
70229;BME280;57617;51.988;5.854;2023-01-25T00:17:01;103308.22;;;4.56;64.71
70229;BME280;57617;51.988;5.854;2023-01-25T00:19:27;103306.34;;;4.56;65.32
70229;BME280;57617;51.988;5.854;2023-01-25T00:21:52;103309.19;;;4.55;64.94
70229;BME280;57617;51.988;5.854;2023-01-25T00:24:17;103303.66;;;4.56;64.56
70229;BME280;57617;51.988;5.854;2023-01-25T00:26:43;103304.53;;;4.57;65.08
70229;BME280;57617;51.988;5.854;2023-01-25T00:29:11;103301.97;;;4.55;64.54
70229;BME280;57617;51.988;5.854;2023-01-25T00:31:45;103298.59;;;4.53;64.71
70229;BME280;57617;51.988;5.854;2023-01-25T00:39:25;103293.47;;;4.50;64.83
70229;BME280;57617;51.988;5.854;2023-01-25T00:41:51;103288.94;;;4.51;65.00
70229;BME280;57617;51.988;5.854;2023-01-25T00:44:17;103293.34;;;4.52;65.06
70229;BME280;57617;51.988;5.854;2023-01-25T00:46:42;103299.53;;;4.52;65.01
70229;BME280;57617;51.988;5.854;2023-01-25T00:49:19;103292.47;;;4.51;64.83
70229;BME280;57617;51.988;5.854;2023-01-25T00:51:45;103289.91;;;4.50;64.86
70229;BME280;57617;51.988;5.854;2023-01-25T00:54:10;103287.09;;;4.51;65.24
70229;BME280;57617;51.988;5.854;2023-01-25T00:56:36;103289.78;;;4.51;64.56
70229;BME280;57617;51.988;5.854;2023-01-25T00:59:01;103285.66;;;4.47;64.73
70229;BME280;57617;51.988;5.854;2023-01-25T01:01:26;103282.97;;;4.47;64.53
70229;BME280;57617;51.988;5.854;2023-01-25T01:03:51;103291.78;;;4.49;65.25
70229;BME280;57617;51.988;5.854;2023-01-25T01:06:17;103288.22;;;4.49;64.80
70229;BME280;57617;51.988;5.854;2023-01-25T01:08:42;103285.41;;;4.50;64.71
70229;BME280;57617;51.988;5.854;2023-01-25T01:11:09;103285.41;;;4.50;64.49
70229;BME280;57617;51.988;5.854;2023-01-25T01:13:35;103281.00;;;4.49;65.02
70229;BME280;57617;51.988;5.854;2023-01-25T01:16:03;103278.31;;;4.49;64.82
70229;BME280;57617;51.988;5.854;2023-01-25T01:18:33;103278.72;;;4.45;64.73
70229;BME280;57617;51.988;5.854;2023-01-25T01:20:59;103282.28;;;4.45;64.86
70229;BME280;57617;51.988;5.854;2023-01-25T01:23:26;103276.34;;;4.42;64.73
70229;BME280;57617;51.988;5.854;2023-01-25T01:25:52;103280.84;;;4.41;64.62
70229;BME280;57617;51.988;5.854;2023-01-25T01:28:17;103289.66;;;4.43;64.51
70229;BME280;57617;51.988;5.854;2023-01-25T01:30:42;103279.16;;;4.40;64.77
70229;BME280;57617;51.988;5.854;2023-01-25T01:33:08;103289.06;;;4.40;64.44
70229;BME280;57617;51.988;5.854;2023-01-25T01:35:33;103288.34;;;4.38;64.77
70229;BME280;57617;51.988;5.854;2023-01-25T01:37:58;103281.16;;;4.38;64.97
70229;BME280;57617;51.988;5.854;2023-01-25T01:40:24;103284.97;;;4.36;64.52
70229;BME280;57617;51.988;5.854;2023-01-25T01:43:00;103279.41;;;4.37;64.58
70229;BME280;57617;51.988;5.854;2023-01-25T01:48:20;103280.00;;;4.31;64.56
70229;BME280;57617;51.988;5.854;2023-01-25T01:50:52;103273.91;;;4.29;64.48
70229;BME280;57617;51.988;5.854;2023-01-25T01:53:21;103283.25;;;4.25;64.23
70229;BME280;57617;51.988;5.854;2023-01-25T01:55:48;103272.06;;;4.20;64.74
70229;BME280;57617;51.988;5.854;2023-01-25T01:58:14;103272.91;;;4.21;64.61
70229;BME280;57617;51.988;5.854;2023-01-25T02:00:40;103267.53;;;4.21;64.98
70229;BME280;57617;51.988;5.854;2023-01-25T02:03:05;103263.84;;;4.22;64.95
70229;BME280;57617;51.988;5.854;2023-01-25T02:05:40;103268.38;;;4.21;64.70
70229;BME280;57617;51.988;5.854;2023-01-25T02:08:09;103270.78;;;4.24;64.87
70229;BME280;57617;51.988;5.854;2023-01-25T02:10:37;103261.16;;;4.22;64.78
70229;BME280;57617;51.988;5.854;2023-01-25T02:13:03;103262.72;;;4.24;64.92
70229;BME280;57617;51.988;5.854;2023-01-25T02:15:37;103253.94;;;4.22;64.71
70229;BME280;57617;51.988;5.854;2023-01-25T02:18:03;103253.34;;;4.19;65.19
70229;BME280;57617;51.988;5.854;2023-01-25T02:20:35;103241.47;;;4.12;64.86
70229;BME280;57617;51.988;5.854;2023-01-25T02:23:28;103245.28;;;4.19;65.20
70229;BME280;57617;51.988;5.854;2023-01-25T02:25:53;103246.41;;;4.16;64.78
70229;BME280;57617;51.988;5.854;2023-01-25T02:28:28;103252.09;;;4.23;65.35
70229;BME280;57617;51.988;5.854;2023-01-25T02:30:54;103250.28;;;4.23;64.65
70229;BME280;57617;51.988;5.854;2023-01-25T02:33:23;103248.56;;;4.22;64.75
70229;BME280;57617;51.988;5.854;2023-01-25T02:35:55;103234.66;;;4.08;63.96
70229;BME280;57617;51.988;5.854;2023-01-25T02:38:23;103242.34;;;4.12;65.07
70229;BME280;57617;51.988;5.854;2023-01-25T02:40:53;103220.91;;;3.92;64.70
70229;BME280;57617;51.988;5.854;2023-01-25T02:43:20;103245.72;;;4.05;64.92
70229;BME280;57617;51.988;5.854;2023-01-25T02:45:51;103242.88;;;4.06;65.16
70229;BME280;57617;51.988;5.854;2023-01-25T02:48:20;103243.84;;;4.05;64.66
70229;BME280;57617;51.988;5.854;2023-01-25T02:50:45;103245.56;;;4.06;65.42
70229;BME280;57617;51.988;5.854;2023-01-25T02:53:11;103251.78;;;4.07;65.30
70229;BME280;57617;51.988;5.854;2023-01-25T02:55:36;103241.91;;;4.07;65.21
70229;BME280;57617;51.988;5.854;2023-01-25T02:58:01;103238.78;;;4.12;65.34
70229;BME280;57617;51.988;5.854;2023-01-25T03:00:27;103233.97;;;4.15;65.38
70229;BME280;57617;51.988;5.854;2023-01-25T03:02:52;103241.22;;;4.15;64.53
70229;BME280;57617;51.988;5.854;2023-01-25T03:05:17;103236.97;;;4.12;64.94
70229;BME280;57617;51.988;5.854;2023-01-25T03:07:42;103236.97;;;4.12;64.89
70229;BME280;57617;51.988;5.854;2023-01-25T03:10:08;103197.84;;;3.89;64.75
70229;BME280;57617;51.988;5.854;2023-01-25T03:12:33;103229.72;;;4.13;64.99
70229;BME280;57617;51.988;5.854;2023-01-25T03:14:59;103224.34;;;4.13;65.07
70229;BME280;57617;51.988;5.854;2023-01-25T03:17:24;103218.84;;;4.14;64.51
70229;BME280;57617;51.988;5.854;2023-01-25T03:19:49;103218.97;;;4.13;65.15
70229;BME280;57617;51.988;5.854;2023-01-25T03:22:15;103215.44;;;4.12;65.08
70229;BME280;57617;51.988;5.854;2023-01-25T03:24:40;103212.75;;;4.12;65.22
70229;BME280;57617;51.988;5.854;2023-01-25T03:27:05;103198.88;;;4.07;64.90
70229;BME280;57617;51.988;5.854;2023-01-25T03:29:39;103194.91;;;4.11;64.98
70229;BME280;57617;51.988;5.854;2023-01-25T03:32:04;103194.75;;;4.13;65.00
70229;BME280;57617;51.988;5.854;2023-01-25T03:34:30;103195.75;;;4.12;64.83
70229;BME280;57617;51.988;5.854;2023-01-25T03:36:55;103199.13;;;4.14;65.56
70229;BME280;57617;51.988;5.854;2023-01-25T03:39:20;103194.19;;;4.09;65.09
70229;BME280;57617;51.988;5.854;2023-01-25T03:41:45;103199.56;;;4.09;64.82
70229;BME280;57617;51.988;5.854;2023-01-25T03:44:11;103192.22;;;4.02;64.63
70229;BME280;57617;51.988;5.854;2023-01-25T03:46:37;103195.47;;;4.05;64.81
70229;BME280;57617;51.988;5.854;2023-01-25T03:49:02;103191.34;;;4.01;65.01
70229;BME280;57617;51.988;5.854;2023-01-25T03:51:28;103192.06;;;4.03;64.93
70229;BME280;57617;51.988;5.854;2023-01-25T03:53:53;103191.22;;;4.03;64.80
70229;BME280;57617;51.988;5.854;2023-01-25T03:56:19;103186.13;;;4.00;65.38
70229;BME280;57617;51.988;5.854;2023-01-25T03:58:45;103172.97;;;3.97;65.05
70229;BME280;57617;51.988;5.854;2023-01-25T04:01:10;103189.66;;;4.00;64.67
70229;BME280;57617;51.988;5.854;2023-01-25T04:03:36;103186.28;;;3.98;64.84
70229;BME280;57617;51.988;5.854;2023-01-25T04:06:02;103187.97;;;3.99;64.81
70229;BME280;57617;51.988;5.854;2023-01-25T04:08:28;103188.81;;;4.00;64.69
70229;BME280;57617;51.988;5.854;2023-01-25T04:10:55;103179.19;;;3.97;65.38
70229;BME280;57617;51.988;5.854;2023-01-25T04:13:22;103177.47;;;3.96;64.61
70229;BME280;57617;51.988;5.854;2023-01-25T04:15:48;103176.78;;;3.94;64.89
70229;BME280;57617;51.988;5.854;2023-01-25T04:18:14;103175.91;;;3.94;64.60
70229;BME280;57617;51.988;5.854;2023-01-25T04:20:39;103174.66;;;3.88;64.72
70229;BME280;57617;51.988;5.854;2023-01-25T04:23:05;103171.81;;;3.80;64.66
70229;BME280;57617;51.988;5.854;2023-01-25T04:25:31;103167.13;;;3.73;64.97
70229;BME280;57617;51.988;5.854;2023-01-25T04:27:56;103156.81;;;3.78;65.21
70229;BME280;57617;51.988;5.854;2023-01-25T04:30:22;103161.91;;;3.81;64.72
70229;BME280;57617;51.988;5.854;2023-01-25T04:32:47;103162.03;;;3.79;65.11
70229;BME280;57617;51.988;5.854;2023-01-25T04:35:12;103163.59;;;3.82;64.95
70229;BME280;57617;51.988;5.854;2023-01-25T04:37:38;103155.41;;;3.83;64.92
70229;BME280;57617;51.988;5.854;2023-01-25T04:40:04;103159.53;;;3.87;65.60
70229;BME280;57617;51.988;5.854;2023-01-25T04:42:30;103150.72;;;3.85;65.11
70229;BME280;57617;51.988;5.854;2023-01-25T04:44:55;103150.59;;;3.77;64.52
70229;BME280;57617;51.988;5.854;2023-01-25T04:47:20;103159.66;;;3.76;64.88
70229;BME280;57617;51.988;5.854;2023-01-25T04:49:46;103157.06;;;3.65;64.79
70229;BME280;57617;51.988;5.854;2023-01-25T04:52:11;103149.44;;;3.70;65.26
70229;BME280;57617;51.988;5.854;2023-01-25T04:54:36;103143.78;;;3.73;65.09
70229;BME280;57617;51.988;5.854;2023-01-25T04:57:01;103148.19;;;3.74;64.97
70229;BME280;57617;51.988;5.854;2023-01-25T04:59:27;103146.47;;;3.73;65.67
70229;BME280;57617;51.988;5.854;2023-01-25T05:01:53;103145.50;;;3.74;65.70
70229;BME280;57617;51.988;5.854;2023-01-25T05:04:18;103150.59;;;3.77;65.71
70229;BME280;57617;51.988;5.854;2023-01-25T05:06:43;103153.16;;;3.79;64.96
70229;BME280;57617;51.988;5.854;2023-01-25T05:09:09;103133.03;;;3.73;64.97
70229;BME280;57617;51.988;5.854;2023-01-25T05:11:34;103145.22;;;3.77;64.97
70229;BME280;57617;51.988;5.854;2023-01-25T05:13:59;103141.97;;;3.74;65.30
70229;BME280;57617;51.988;5.854;2023-01-25T05:16:24;103137.28;;;3.66;64.73
70229;BME280;57617;51.988;5.854;2023-01-25T05:18:50;103133.03;;;3.64;65.77
70229;BME280;57617;51.988;5.854;2023-01-25T05:21:15;103128.78;;;3.61;65.02
70229;BME280;57617;51.988;5.854;2023-01-25T05:23:59;103123.44;;;3.61;65.33
70229;BME280;57617;51.988;5.854;2023-01-25T05:26:24;103094.97;;;3.40;64.93
70229;BME280;57617;51.988;5.854;2023-01-25T05:29:08;103129.50;;;3.63;65.46
70229;BME280;57617;51.988;5.854;2023-01-25T05:31:34;103137.56;;;3.63;65.04
70229;BME280;57617;51.988;5.854;2023-01-25T05:33:59;103132.88;;;3.65;65.57
70229;BME280;57617;51.988;5.854;2023-01-25T05:36:25;103129.78;;;3.70;65.52
70229;BME280;57617;51.988;5.854;2023-01-25T05:38:50;103131.63;;;3.69;65.30
70229;BME280;57617;51.988;5.854;2023-01-25T05:41:17;103127.50;;;3.65;65.16
70229;BME280;57617;51.988;5.854;2023-01-25T05:43:42;103127.50;;;3.65;65.58
70229;BME280;57617;51.988;5.854;2023-01-25T05:46:07;103129.50;;;3.63;65.07
70229;BME280;57617;51.988;5.854;2023-01-25T05:48:33;103125.13;;;3.62;64.95
70229;BME280;57617;51.988;5.854;2023-01-25T05:50:58;103130.19;;;3.65;64.76
70229;BME280;57617;51.988;5.854;2023-01-25T05:53:25;103123.84;;;3.66;65.09
70229;BME280;57617;51.988;5.854;2023-01-25T05:55:50;103131.06;;;3.66;65.04
70229;BME280;57617;51.988;5.854;2023-01-25T05:58:16;103128.22;;;3.67;64.79
70229;BME280;57617;51.988;5.854;2023-01-25T06:00:41;103134.44;;;3.68;65.50
70229;BME280;57617;51.988;5.854;2023-01-25T06:03:06;103127.25;;;3.68;65.49
70229;BME280;57617;51.988;5.854;2023-01-25T06:05:32;103127.38;;;3.57;65.08
70229;BME280;57617;51.988;5.854;2023-01-25T06:07:57;103129.94;;;3.59;64.72
70229;BME280;57617;51.988;5.854;2023-01-25T06:10:22;103133.31;;;3.61;64.97
70229;BME280;57617;51.988;5.854;2023-01-25T06:12:48;103131.47;;;3.61;65.09
70229;BME280;57617;51.988;5.854;2023-01-25T06:15:13;103127.81;;;3.62;65.88
70229;BME280;57617;51.988;5.854;2023-01-25T06:17:38;103130.88;;;3.58;65.11
70229;BME280;57617;51.988;5.854;2023-01-25T06:20:04;103140.06;;;3.55;65.06
70229;BME280;57617;51.988;5.854;2023-01-25T06:22:29;103140.25;;;3.54;65.58
70229;BME280;57617;51.988;5.854;2023-01-25T06:24:54;103129.88;;;3.49;65.05
70229;BME280;57617;51.988;5.854;2023-01-25T06:27:20;103134.88;;;3.54;65.57
70229;BME280;57617;51.988;5.854;2023-01-25T06:29:45;103135.56;;;3.56;65.79
70229;BME280;57617;51.988;5.854;2023-01-25T06:32:10;103132.00;;;3.55;65.96
70229;BME280;57617;51.988;5.854;2023-01-25T06:34:36;103140.50;;;3.60;65.46
70229;BME280;57617;51.988;5.854;2023-01-25T06:37:01;103139.38;;;3.63;65.59
70229;BME280;57617;51.988;5.854;2023-01-25T06:39:26;103130.19;;;3.65;65.33
70229;BME280;57617;51.988;5.854;2023-01-25T06:41:53;103132.19;;;3.63;65.43
70229;BME280;57617;51.988;5.854;2023-01-25T06:44:20;103132.19;;;3.63;65.78
70229;BME280;57617;51.988;5.854;2023-01-25T06:46:45;103128.50;;;3.64;65.89
70229;BME280;57617;51.988;5.854;2023-01-25T06:49:10;103122.13;;;3.65;65.54
70229;BME280;57617;51.988;5.854;2023-01-25T06:51:36;103132.88;;;3.65;66.14
70229;BME280;57617;51.988;5.854;2023-01-25T06:54:02;103123.13;;;3.64;65.95
70229;BME280;57617;51.988;5.854;2023-01-25T06:56:28;103131.06;;;3.66;65.74
70229;BME280;57617;51.988;5.854;2023-01-25T06:58:53;103126.81;;;3.63;65.49
70229;BME280;57617;51.988;5.854;2023-01-25T07:01:21;103122.69;;;3.59;65.25
70229;BME280;57617;51.988;5.854;2023-01-25T07:03:48;103121.00;;;3.58;65.65
70229;BME280;57617;51.988;5.854;2023-01-25T07:06:13;103105.56;;;3.51;65.54
70229;BME280;57617;51.988;5.854;2023-01-25T07:08:39;103120.31;;;3.56;65.72
70229;BME280;57617;51.988;5.854;2023-01-25T07:11:06;103114.34;;;3.53;65.12
70229;BME280;57617;51.988;5.854;2023-01-25T07:13:33;103124.81;;;3.46;65.37
70229;BME280;57617;51.988;5.854;2023-01-25T07:16:04;103121.38;;;3.44;65.71
70229;BME280;57617;51.988;5.854;2023-01-25T07:18:30;103132.88;;;3.46;65.66
70229;BME280;57617;51.988;5.854;2023-01-25T07:21:12;103122.94;;;3.47;66.10
70229;BME280;57617;51.988;5.854;2023-01-25T07:23:38;103123.09;;;3.45;65.68
70229;BME280;57617;51.988;5.854;2023-01-25T07:26:04;103111.94;;;3.50;66.49
70229;BME280;57617;51.988;5.854;2023-01-25T07:28:31;103099.34;;;3.50;65.45
70229;BME280;57617;51.988;5.854;2023-01-25T07:31:03;103103.59;;;3.53;65.30
70229;BME280;57617;51.988;5.854;2023-01-25T07:33:30;103106.28;;;3.53;65.75
70229;BME280;57617;51.988;5.854;2023-01-25T07:35:59;103109.97;;;3.52;65.35
70229;BME280;57617;51.988;5.854;2023-01-25T07:38:25;103096.66;;;3.50;65.95
70229;BME280;57617;51.988;5.854;2023-01-25T07:40:51;103102.03;;;3.50;65.25
70229;BME280;57617;51.988;5.854;2023-01-25T07:43:17;103097.38;;;3.52;66.14
70229;BME280;57617;51.988;5.854;2023-01-25T07:45:43;103099.34;;;3.50;65.66
70229;BME280;57617;51.988;5.854;2023-01-25T07:48:12;103098.78;;;3.47;65.60
70229;BME280;57617;51.988;5.854;2023-01-25T07:50:38;103102.88;;;3.51;65.62
70229;BME280;57617;51.988;5.854;2023-01-25T07:53:05;103106.28;;;3.53;65.48
70229;BME280;57617;51.988;5.854;2023-01-25T07:55:30;103099.06;;;3.53;65.62
70229;BME280;57617;51.988;5.854;2023-01-25T07:57:56;103102.47;;;3.55;66.04
70229;BME280;57617;51.988;5.854;2023-01-25T08:00:21;103098.81;;;3.56;65.86
70229;BME280;57617;51.988;5.854;2023-01-25T08:02:50;103093.97;;;3.50;65.35
70229;BME280;57617;51.988;5.854;2023-01-25T08:05:15;103095.53;;;3.53;65.49
70229;BME280;57617;51.988;5.854;2023-01-25T08:07:40;103094.41;;;3.55;65.39
70229;BME280;57617;51.988;5.854;2023-01-25T08:10:06;103079.41;;;3.53;65.33
70229;BME280;57617;51.988;5.854;2023-01-25T08:12:32;103081.97;;;3.54;66.00
70229;BME280;57617;51.988;5.854;2023-01-25T08:14:59;103076.72;;;3.53;65.64
70229;BME280;57617;51.988;5.854;2023-01-25T08:17:24;103079.16;;;3.46;65.69
70229;BME280;57617;51.988;5.854;2023-01-25T08:19:55;103076.44;;;3.37;66.06
70229;BME280;57617;51.988;5.854;2023-01-25T08:22:21;103090.59;;;3.39;66.01
70229;BME280;57617;51.988;5.854;2023-01-25T08:24:46;103084.22;;;3.40;65.69
70229;BME280;57617;51.988;5.854;2023-01-25T08:27:11;103079.72;;;3.40;65.58
70229;BME280;57617;51.988;5.854;2023-01-25T08:29:36;103082.78;;;3.45;65.84
70229;BME280;57617;51.988;5.854;2023-01-25T08:32:02;103073.91;;;3.45;65.63
70229;BME280;57617;51.988;5.854;2023-01-25T08:34:30;103075.47;;;3.47;65.48
70229;BME280;57617;51.988;5.854;2023-01-25T08:36:56;103074.59;;;3.47;66.08
70229;BME280;57617;51.988;5.854;2023-01-25T08:39:21;103073.34;;;3.41;66.60
70229;BME280;57617;51.988;5.854;2023-01-25T08:41:47;103070.22;;;3.46;65.78
70229;BME280;57617;51.988;5.854;2023-01-25T08:44:12;103070.34;;;3.44;65.83
70229;BME280;57617;51.988;5.854;2023-01-25T08:46:37;103066.69;;;3.45;65.82
70229;BME280;57617;51.988;5.854;2023-01-25T08:49:03;103044.75;;;3.31;65.69
70229;BME280;57617;51.988;5.854;2023-01-25T08:51:29;103071.91;;;3.47;65.97
70229;BME280;57617;51.988;5.854;2023-01-25T08:53:55;103067.09;;;3.50;65.43
70229;BME280;57617;51.988;5.854;2023-01-25T08:56:21;103068.09;;;3.49;65.78
70229;BME280;57617;51.988;5.854;2023-01-25T08:58:47;103069.09;;;3.48;65.58
70229;BME280;57617;51.988;5.854;2023-01-25T09:01:14;103059.66;;;3.54;65.96
70229;BME280;57617;51.988;5.854;2023-01-25T09:03:42;103062.75;;;3.59;65.68
70229;BME280;57617;51.988;5.854;2023-01-25T09:06:08;103048.91;;;3.54;66.07
70229;BME280;57617;51.988;5.854;2023-01-25T09:08:35;103050.03;;;3.61;66.23
70229;BME280;57617;51.988;5.854;2023-01-25T09:11:04;103056.94;;;3.63;65.38
70229;BME280;57617;51.988;5.854;2023-01-25T09:13:29;103056.81;;;3.65;65.75
70229;BME280;57617;51.988;5.854;2023-01-25T09:16:06;103065.72;;;3.65;65.65
70229;BME280;57617;51.988;5.854;2023-01-25T09:18:33;103053.56;;;3.61;65.19
70229;BME280;57617;51.988;5.854;2023-01-25T09:21:05;103036.59;;;3.51;64.88
70229;BME280;57617;51.988;5.854;2023-01-25T09:23:30;103039.69;;;3.37;65.33
70229;BME280;57617;51.988;5.854;2023-01-25T09:25:57;103040.94;;;3.43;66.03
70229;BME280;57617;51.988;5.854;2023-01-25T09:28:23;103040.53;;;3.47;65.88
70229;BME280;57617;51.988;5.854;2023-01-25T09:31:03;103041.97;;;3.51;65.78
70229;BME280;57617;51.988;5.854;2023-01-25T09:33:33;103044.06;;;3.48;65.92
70229;BME280;57617;51.988;5.854;2023-01-25T09:35:59;103031.50;;;3.48;66.19
70229;BME280;57617;51.988;5.854;2023-01-25T09:38:24;103039.13;;;3.53;65.94
70229;BME280;57617;51.988;5.854;2023-01-25T09:41:17;103045.50;;;3.52;65.56
70229;BME280;57617;51.988;5.854;2023-01-25T09:46:40;103038.00;;;3.46;65.91
70229;BME280;57617;51.988;5.854;2023-01-25T09:54:38;103026.81;;;3.50;65.91
70229;BME280;57617;51.988;5.854;2023-01-25T09:57:25;103041.09;;;3.51;65.79
70229;BME280;57617;51.988;5.854;2023-01-25T09:59:52;103040.97;;;3.52;66.33
70229;BME280;57617;51.988;5.854;2023-01-25T10:02:53;103038.72;;;3.57;66.24
70229;BME280;57617;51.988;5.854;2023-01-25T10:05:24;103036.72;;;3.59;65.47
70229;BME280;57617;51.988;5.854;2023-01-25T10:08:05;103034.91;;;3.60;65.77
70229;BME280;57617;51.988;5.854;2023-01-25T10:10:40;103029.94;;;3.55;65.19
70229;BME280;57617;51.988;5.854;2023-01-25T10:13:20;103029.50;;;3.41;66.37
70229;BME280;57617;51.988;5.854;2023-01-25T10:15:49;103031.63;;;3.47;65.95
70229;BME280;57617;51.988;5.854;2023-01-25T10:18:31;103023.88;;;3.53;65.84
70229;BME280;57617;51.988;5.854;2023-01-25T10:21:01;103017.09;;;3.59;65.63
70229;BME280;57617;51.988;5.854;2023-01-25T10:25:57;103015.78;;;3.63;65.75
70229;BME280;57617;51.988;5.854;2023-01-25T10:28:37;103008.59;;;3.63;65.37
70229;BME280;57617;51.988;5.854;2023-01-25T10:31:15;103010.28;;;3.64;65.56
70229;BME280;57617;51.988;5.854;2023-01-25T10:33:43;103003.09;;;3.65;65.66
70229;BME280;57617;51.988;5.854;2023-01-25T10:36:16;102997.56;;;3.66;65.40
70229;BME280;57617;51.988;5.854;2023-01-25T10:38:47;102992.19;;;3.66;65.25
70229;BME280;57617;51.988;5.854;2023-01-25T10:41:43;102985.53;;;3.70;65.64
70229;BME280;57617;51.988;5.854;2023-01-25T10:44:12;102977.78;;;3.67;65.74
70229;BME280;57617;51.988;5.854;2023-01-25T10:47:00;102956.13;;;3.69;65.69
70229;BME280;57617;51.988;5.854;2023-01-25T10:49:47;102962.03;;;3.82;65.56
70229;BME280;57617;51.988;5.854;2023-01-25T10:52:16;102950.28;;;3.83;65.69
70229;BME280;57617;51.988;5.854;2023-01-25T10:54:42;102953.16;;;3.81;65.76
70229;BME280;57617;51.988;5.854;2023-01-25T10:57:10;102934.47;;;3.70;65.26
70229;BME280;57617;51.988;5.854;2023-01-25T10:59:37;102948.50;;;3.74;65.28
70229;BME280;57617;51.988;5.854;2023-01-25T11:07:42;102923.47;;;3.64;65.88
70229;BME280;57617;51.988;5.854;2023-01-25T11:10:27;102922.34;;;3.66;65.63
70229;BME280;57617;51.988;5.854;2023-01-25T11:13:18;102924.31;;;3.64;66.02
70229;BME280;57617;51.988;5.854;2023-01-25T11:15:46;102907.81;;;3.50;65.66
70229;BME280;57617;51.988;5.854;2023-01-25T11:18:17;102910.47;;;3.50;66.31
70229;BME280;57617;51.988;5.854;2023-01-25T11:20:43;102911.03;;;3.53;66.19
70229;BME280;57617;51.988;5.854;2023-01-25T11:23:23;102898.16;;;3.57;65.97
70229;BME280;57617;51.988;5.854;2023-01-25T11:25:49;102900.84;;;3.57;65.84
70229;BME280;57617;51.988;5.854;2023-01-25T11:28:22;102890.41;;;3.54;65.46
70229;BME280;57617;51.988;5.854;2023-01-25T11:30:49;102883.03;;;3.56;65.88
70229;BME280;57617;51.988;5.854;2023-01-25T11:33:17;102880.22;;;3.57;65.74
70229;BME280;57617;51.988;5.854;2023-01-25T11:38:31;102868.19;;;3.61;66.11
70229;BME280;57617;51.988;5.854;2023-01-25T11:41:03;102859.13;;;3.62;65.83
70229;BME280;57617;51.988;5.854;2023-01-25T12:06:47;102789.31;;;3.53;65.71
70229;BME280;57617;51.988;5.854;2023-01-25T12:18:10;102771.91;;;3.57;66.29
70229;BME280;57617;51.988;5.854;2023-01-25T12:21:02;102763.97;;;3.55;66.34
70229;BME280;57617;51.988;5.854;2023-01-25T12:26:26;102754.56;;;3.51;66.17
70229;BME280;57617;51.988;5.854;2023-01-25T12:29:09;102747.31;;;3.52;66.32
70229;BME280;57617;51.988;5.854;2023-01-25T12:31:51;102739.72;;;3.47;66.32
70229;BME280;57617;51.988;5.854;2023-01-25T12:34:24;102731.53;;;3.49;66.15
70229;BME280;57617;51.988;5.854;2023-01-25T12:36:53;102724.84;;;3.53;65.77
70229;BME280;57617;51.988;5.854;2023-01-25T12:39:28;102721.34;;;3.43;65.64
70229;BME280;57617;51.988;5.854;2023-01-25T12:42:16;102711.38;;;3.35;66.55
70229;BME280;57617;51.988;5.854;2023-01-25T12:44:59;102714.28;;;3.42;66.48
70229;BME280;57617;51.988;5.854;2023-01-25T12:50:12;102710.31;;;3.46;66.22
70229;BME280;57617;51.988;5.854;2023-01-25T12:52:51;102707.34;;;3.49;66.25
70229;BME280;57617;51.988;5.854;2023-01-25T12:55:18;102700.66;;;3.53;66.65
70229;BME280;57617;51.988;5.854;2023-01-25T13:00:57;102689.50;;;3.57;66.42
70229;BME280;57617;51.988;5.854;2023-01-25T13:06:25;102682.31;;;3.48;65.90
70229;BME280;57617;51.988;5.854;2023-01-25T13:09:06;102685.16;;;3.47;66.21
70229;BME280;57617;51.988;5.854;2023-01-25T13:11:36;102667.09;;;3.39;66.41
70229;BME280;57617;51.988;5.854;2023-01-25T13:16:47;102660.97;;;3.47;66.55
70229;BME280;57617;51.988;5.854;2023-01-25T13:19:37;102658.16;;;3.48;66.51
70229;BME280;57617;51.988;5.854;2023-01-25T13:22:03;102645.72;;;3.47;66.24
70229;BME280;57617;51.988;5.854;2023-01-25T13:24:30;102629.34;;;3.41;66.65
70229;BME280;57617;51.988;5.854;2023-01-25T13:26:57;102641.19;;;3.48;66.71
70229;BME280;57617;51.988;5.854;2023-01-25T13:32:01;102638.88;;;3.35;66.38
70229;BME280;57617;51.988;5.854;2023-01-25T13:39:43;102619.22;;;3.35;67.06
70229;BME280;57617;51.988;5.854;2023-01-25T13:44:47;102620.16;;;3.43;66.73
70229;BME280;57617;51.988;5.854;2023-01-25T13:47:20;102622.16;;;3.41;66.32
70229;BME280;57617;51.988;5.854;2023-01-25T13:49:51;102625.84;;;3.40;66.57
70229;BME280;57617;51.988;5.854;2023-01-25T13:52:21;102622.97;;;3.42;66.38
70229;BME280;57617;51.988;5.854;2023-01-25T13:54:48;102619.63;;;3.40;66.81
70229;BME280;57617;51.988;5.854;2023-01-25T13:57:19;102623.44;;;3.37;66.59
70229;BME280;57617;51.988;5.854;2023-01-25T13:59:45;102629.66;;;3.38;67.25
70229;BME280;57617;51.988;5.854;2023-01-25T14:02:19;102625.44;;;3.35;66.88
70229;BME280;57617;51.988;5.854;2023-01-25T14:04:47;102622.91;;;3.34;67.28
70229;BME280;57617;51.988;5.854;2023-01-25T14:07:19;102623.72;;;3.34;66.35
70229;BME280;57617;51.988;5.854;2023-01-25T14:09:46;102613.84;;;3.35;66.57
70229;BME280;57617;51.988;5.854;2023-01-25T14:12:28;102610.22;;;3.26;66.72
70229;BME280;57617;51.988;5.854;2023-01-25T14:14:55;102617.41;;;3.26;66.84
70229;BME280;57617;51.988;5.854;2023-01-25T14:17:22;102609.69;;;3.23;67.02
70229;BME280;57617;51.988;5.854;2023-01-25T14:19:54;102604.59;;;3.20;67.23
70229;BME280;57617;51.988;5.854;2023-01-25T14:22:28;102610.25;;;3.17;66.97
70229;BME280;57617;51.988;5.854;2023-01-25T14:27:25;102595.06;;;3.08;66.60
70229;BME280;57617;51.988;5.854;2023-01-25T14:29:54;102609.84;;;3.12;66.90
70229;BME280;57617;51.988;5.854;2023-01-25T14:32:20;102605.63;;;3.09;66.45